sensor_id;sensor_type;location;lat;lon;timestamp;P1;durP1;ratioP1;P2;durP2;ratioP2
50231;SDS011;36118;56.468;84.952;2022-07-23T00:01:30;12.60;;;8.88;;
50231;SDS011;36118;56.468;84.952;2022-07-23T00:06:33;10.13;;;8.23;;
50231;SDS011;36118;56.468;84.952;2022-07-23T00:11:36;10.02;;;6.90;;
50231;SDS011;36118;56.468;84.952;2022-07-23T00:16:39;9.23;;;6.30;;
50231;SDS011;36118;56.468;84.952;2022-07-23T00:21:41;7.25;;;5.45;;
50231;SDS011;36118;56.468;84.952;2022-07-23T00:26:44;6.13;;;5.53;;
50231;SDS011;36118;56.468;84.952;2022-07-23T00:31:47;7.30;;;6.32;;
50231;SDS011;36118;56.468;84.952;2022-07-23T00:36:50;7.55;;;5.72;;
50231;SDS011;36118;56.468;84.952;2022-07-23T00:41:55;8.95;;;6.28;;
50231;SDS011;36118;56.468;84.952;2022-07-23T00:46:58;9.88;;;5.38;;
50231;SDS011;36118;56.468;84.952;2022-07-23T00:52:01;7.05;;;4.95;;
50231;SDS011;36118;56.468;84.952;2022-07-23T00:57:05;7.10;;;4.90;;
50231;SDS011;36118;56.468;84.952;2022-07-23T01:02:08;8.07;;;5.07;;
50231;SDS011;36118;56.468;84.952;2022-07-23T01:07:10;7.00;;;5.18;;
50231;SDS011;36118;56.468;84.952;2022-07-23T01:12:13;9.35;;;5.65;;
50231;SDS011;36118;56.468;84.952;2022-07-23T01:17:16;5.82;;;4.95;;
50231;SDS011;36118;56.468;84.952;2022-07-23T01:22:20;10.35;;;7.30;;
50231;SDS011;36118;56.468;84.952;2022-07-23T01:27:23;8.38;;;5.65;;
50231;SDS011;36118;56.468;84.952;2022-07-23T01:32:31;10.43;;;6.80;;
50231;SDS011;36118;56.468;84.952;2022-07-23T01:37:34;14.52;;;10.07;;
50231;SDS011;36118;56.468;84.952;2022-07-23T01:42:37;9.13;;;5.97;;
50231;SDS011;36118;56.468;84.952;2022-07-23T01:47:41;8.65;;;6.43;;
50231;SDS011;36118;56.468;84.952;2022-07-23T01:52:44;6.93;;;3.85;;
50231;SDS011;36118;56.468;84.952;2022-07-23T01:57:47;7.00;;;3.97;;
50231;SDS011;36118;56.468;84.952;2022-07-23T02:02:54;9.40;;;4.65;;
50231;SDS011;36118;56.468;84.952;2022-07-23T02:07:57;6.70;;;4.30;;
50231;SDS011;36118;56.468;84.952;2022-07-23T02:13:01;7.20;;;3.72;;
50231;SDS011;36118;56.468;84.952;2022-07-23T02:18:03;6.38;;;3.75;;
50231;SDS011;36118;56.468;84.952;2022-07-23T02:23:06;5.63;;;4.00;;
50231;SDS011;36118;56.468;84.952;2022-07-23T02:28:09;4.97;;;3.55;;
50231;SDS011;36118;56.468;84.952;2022-07-23T02:33:15;5.05;;;3.90;;
50231;SDS011;36118;56.468;84.952;2022-07-23T02:38:22;4.88;;;4.00;;
50231;SDS011;36118;56.468;84.952;2022-07-23T02:43:25;6.35;;;3.95;;
50231;SDS011;36118;56.468;84.952;2022-07-23T02:48:28;4.57;;;3.58;;
50231;SDS011;36118;56.468;84.952;2022-07-23T02:53:33;4.35;;;3.83;;
50231;SDS011;36118;56.468;84.952;2022-07-23T02:58:39;5.95;;;3.78;;
50231;SDS011;36118;56.468;84.952;2022-07-23T03:03:42;5.22;;;3.58;;
50231;SDS011;36118;56.468;84.952;2022-07-23T03:08:45;6.78;;;3.35;;
50231;SDS011;36118;56.468;84.952;2022-07-23T03:13:50;5.20;;;3.30;;
50231;SDS011;36118;56.468;84.952;2022-07-23T03:18:54;9.68;;;4.95;;
50231;SDS011;36118;56.468;84.952;2022-07-23T03:23:57;5.65;;;3.88;;
50231;SDS011;36118;56.468;84.952;2022-07-23T03:29:00;4.45;;;3.25;;
50231;SDS011;36118;56.468;84.952;2022-07-23T03:34:06;3.10;;;2.13;;
50231;SDS011;36118;56.468;84.952;2022-07-23T03:39:11;5.82;;;2.65;;
50231;SDS011;36118;56.468;84.952;2022-07-23T03:44:15;4.28;;;2.70;;
50231;SDS011;36118;56.468;84.952;2022-07-23T03:49:18;6.65;;;3.83;;
50231;SDS011;36118;56.468;84.952;2022-07-23T03:54:23;4.75;;;2.45;;
50231;SDS011;36118;56.468;84.952;2022-07-23T03:59:26;3.97;;;2.65;;
50231;SDS011;36118;56.468;84.952;2022-07-23T04:04:29;5.50;;;2.92;;
50231;SDS011;36118;56.468;84.952;2022-07-23T04:09:32;7.50;;;2.70;;
50231;SDS011;36118;56.468;84.952;2022-07-23T04:14:35;4.63;;;2.53;;
50231;SDS011;36118;56.468;84.952;2022-07-23T04:19:39;3.92;;;2.40;;
50231;SDS011;36118;56.468;84.952;2022-07-23T04:24:43;3.65;;;2.53;;
50231;SDS011;36118;56.468;84.952;2022-07-23T04:29:46;4.60;;;2.60;;
50231;SDS011;36118;56.468;84.952;2022-07-23T04:34:49;6.03;;;4.13;;
50231;SDS011;36118;56.468;84.952;2022-07-23T04:39:52;4.38;;;2.70;;
50231;SDS011;36118;56.468;84.952;2022-07-23T04:44:57;5.32;;;2.60;;
50231;SDS011;36118;56.468;84.952;2022-07-23T04:50:00;3.85;;;2.38;;
50231;SDS011;36118;56.468;84.952;2022-07-23T04:55:03;4.50;;;2.88;;
50231;SDS011;36118;56.468;84.952;2022-07-23T05:00:09;4.03;;;3.00;;
50231;SDS011;36118;56.468;84.952;2022-07-23T05:05:12;5.93;;;2.92;;
50231;SDS011;36118;56.468;84.952;2022-07-23T05:10:16;4.93;;;3.38;;
50231;SDS011;36118;56.468;84.952;2022-07-23T05:15:19;7.32;;;2.90;;
50231;SDS011;36118;56.468;84.952;2022-07-23T05:20:22;5.43;;;3.30;;
50231;SDS011;36118;56.468;84.952;2022-07-23T05:25:25;4.15;;;2.70;;
50231;SDS011;36118;56.468;84.952;2022-07-23T05:30:28;3.55;;;2.50;;
50231;SDS011;36118;56.468;84.952;2022-07-23T05:35:35;4.18;;;2.58;;
50231;SDS011;36118;56.468;84.952;2022-07-23T05:40:50;6.30;;;2.70;;
50231;SDS011;36118;56.468;84.952;2022-07-23T05:45:53;4.93;;;2.80;;
50231;SDS011;36118;56.468;84.952;2022-07-23T05:50:57;4.30;;;2.72;;
50231;SDS011;36118;56.468;84.952;2022-07-23T05:56:05;4.43;;;2.65;;
50231;SDS011;36118;56.468;84.952;2022-07-23T06:01:10;5.13;;;2.00;;
50231;SDS011;36118;56.468;84.952;2022-07-23T06:06:20;3.63;;;2.22;;
50231;SDS011;36118;56.468;84.952;2022-07-23T06:16:33;3.50;;;2.15;;
50231;SDS011;36118;56.468;84.952;2022-07-23T06:21:36;4.15;;;2.28;;
50231;SDS011;36118;56.468;84.952;2022-07-23T06:26:49;4.45;;;2.28;;
50231;SDS011;36118;56.468;84.952;2022-07-23T06:31:53;3.78;;;2.17;;
50231;SDS011;36118;56.468;84.952;2022-07-23T06:36:57;3.53;;;1.80;;
50231;SDS011;36118;56.468;84.952;2022-07-23T06:42:00;2.85;;;2.00;;
50231;SDS011;36118;56.468;84.952;2022-07-23T06:47:19;3.17;;;2.10;;
50231;SDS011;36118;56.468;84.952;2022-07-23T06:52:22;3.88;;;2.00;;
50231;SDS011;36118;56.468;84.952;2022-07-23T06:57:25;3.42;;;2.05;;
50231;SDS011;36118;56.468;84.952;2022-07-23T07:02:28;5.82;;;2.20;;
50231;SDS011;36118;56.468;84.952;2022-07-23T07:07:31;3.33;;;2.30;;
50231;SDS011;36118;56.468;84.952;2022-07-23T07:12:34;2.80;;;2.03;;
50231;SDS011;36118;56.468;84.952;2022-07-23T07:17:37;3.80;;;2.60;;
50231;SDS011;36118;56.468;84.952;2022-07-23T07:22:40;3.92;;;2.42;;
50231;SDS011;36118;56.468;84.952;2022-07-23T07:27:42;5.03;;;2.40;;
50231;SDS011;36118;56.468;84.952;2022-07-23T07:32:48;3.63;;;2.50;;
50231;SDS011;36118;56.468;84.952;2022-07-23T07:37:59;13.70;;;2.22;;
50231;SDS011;36118;56.468;84.952;2022-07-23T07:43:02;6.57;;;2.40;;
50231;SDS011;36118;56.468;84.952;2022-07-23T07:48:05;4.78;;;2.03;;
50231;SDS011;36118;56.468;84.952;2022-07-23T07:53:08;5.20;;;3.38;;
50231;SDS011;36118;56.468;84.952;2022-07-23T07:58:11;3.15;;;2.22;;
50231;SDS011;36118;56.468;84.952;2022-07-23T08:03:14;3.72;;;2.20;;
50231;SDS011;36118;56.468;84.952;2022-07-23T08:08:17;5.65;;;2.60;;
50231;SDS011;36118;56.468;84.952;2022-07-23T08:13:24;8.15;;;2.70;;
50231;SDS011;36118;56.468;84.952;2022-07-23T08:18:27;5.10;;;2.45;;
50231;SDS011;36118;56.468;84.952;2022-07-23T08:23:30;3.47;;;2.25;;
50231;SDS011;36118;56.468;84.952;2022-07-23T08:28:33;3.17;;;1.83;;
50231;SDS011;36118;56.468;84.952;2022-07-23T08:33:36;4.00;;;1.90;;
50231;SDS011;36118;56.468;84.952;2022-07-23T08:38:40;3.43;;;1.83;;
50231;SDS011;36118;56.468;84.952;2022-07-23T08:43:45;4.18;;;1.90;;
50231;SDS011;36118;56.468;84.952;2022-07-23T08:48:51;2.67;;;1.58;;
50231;SDS011;36118;56.468;84.952;2022-07-23T08:53:56;3.73;;;2.13;;
50231;SDS011;36118;56.468;84.952;2022-07-23T08:59:03;3.08;;;2.08;;
50231;SDS011;36118;56.468;84.952;2022-07-23T09:04:09;3.80;;;1.70;;
50231;SDS011;36118;56.468;84.952;2022-07-23T09:09:19;4.90;;;1.90;;
50231;SDS011;36118;56.468;84.952;2022-07-23T09:14:40;3.95;;;2.10;;
50231;SDS011;36118;56.468;84.952;2022-07-23T09:30:42;3.55;;;2.10;;
50231;SDS011;36118;56.468;84.952;2022-07-23T09:35:52;3.70;;;1.67;;
50231;SDS011;36118;56.468;84.952;2022-07-23T09:41:09;6.55;;;1.77;;
50231;SDS011;36118;56.468;84.952;2022-07-23T09:46:17;5.45;;;2.10;;
50231;SDS011;36118;56.468;84.952;2022-07-23T09:51:46;3.47;;;1.60;;
50231;SDS011;36118;56.468;84.952;2022-07-23T09:57:12;4.72;;;1.75;;
50231;SDS011;36118;56.468;84.952;2022-07-23T10:02:19;3.40;;;1.80;;
50231;SDS011;36118;56.468;84.952;2022-07-23T10:07:51;3.78;;;1.80;;
50231;SDS011;36118;56.468;84.952;2022-07-23T10:13:26;5.03;;;2.55;;
50231;SDS011;36118;56.468;84.952;2022-07-23T10:18:48;3.03;;;1.98;;
50231;SDS011;36118;56.468;84.952;2022-07-23T10:23:58;3.78;;;2.00;;
50231;SDS011;36118;56.468;84.952;2022-07-23T10:29:11;6.80;;;1.70;;
50231;SDS011;36118;56.468;84.952;2022-07-23T10:45:22;5.82;;;2.40;;
50231;SDS011;36118;56.468;84.952;2022-07-23T10:50:39;3.72;;;2.03;;
50231;SDS011;36118;56.468;84.952;2022-07-23T10:55:43;5.07;;;2.88;;
50231;SDS011;36118;56.468;84.952;2022-07-23T11:00:47;4.78;;;2.40;;
50231;SDS011;36118;56.468;84.952;2022-07-23T11:05:51;4.25;;;2.40;;
50231;SDS011;36118;56.468;84.952;2022-07-23T11:16:11;2.35;;;1.48;;
50231;SDS011;36118;56.468;84.952;2022-07-23T11:31:55;2.15;;;1.40;;
50231;SDS011;36118;56.468;84.952;2022-07-23T11:37:02;4.07;;;1.90;;
50231;SDS011;36118;56.468;84.952;2022-07-23T11:42:06;2.40;;;1.50;;
50231;SDS011;36118;56.468;84.952;2022-07-23T11:47:10;5.22;;;1.70;;
50231;SDS011;36118;56.468;84.952;2022-07-23T11:52:16;2.72;;;1.70;;
50231;SDS011;36118;56.468;84.952;2022-07-23T11:57:20;4.53;;;1.40;;
50231;SDS011;36118;56.468;84.952;2022-07-23T12:02:26;6.05;;;1.40;;
50231;SDS011;36118;56.468;84.952;2022-07-23T12:07:34;3.13;;;1.60;;
50231;SDS011;36118;56.468;84.952;2022-07-23T12:12:41;3.25;;;1.85;;
50231;SDS011;36118;56.468;84.952;2022-07-23T12:17:46;4.72;;;1.40;;
50231;SDS011;36118;56.468;84.952;2022-07-23T12:22:53;4.95;;;1.67;;
50231;SDS011;36118;56.468;84.952;2022-07-23T12:28:09;4.60;;;1.95;;
50231;SDS011;36118;56.468;84.952;2022-07-23T12:33:26;3.40;;;1.77;;
50231;SDS011;36118;56.468;84.952;2022-07-23T12:38:44;3.60;;;2.08;;
50231;SDS011;36118;56.468;84.952;2022-07-23T12:43:51;3.95;;;2.28;;
50231;SDS011;36118;56.468;84.952;2022-07-23T12:48:54;4.22;;;2.47;;
50231;SDS011;36118;56.468;84.952;2022-07-23T12:54:07;4.63;;;2.42;;
50231;SDS011;36118;56.468;84.952;2022-07-23T12:59:13;4.85;;;2.70;;
50231;SDS011;36118;56.468;84.952;2022-07-23T13:04:23;6.97;;;1.88;;
50231;SDS011;36118;56.468;84.952;2022-07-23T13:09:27;3.90;;;1.92;;
50231;SDS011;36118;56.468;84.952;2022-07-23T13:14:34;3.10;;;1.55;;
50231;SDS011;36118;56.468;84.952;2022-07-23T13:19:36;5.85;;;1.80;;
50231;SDS011;36118;56.468;84.952;2022-07-23T13:24:39;4.68;;;1.92;;
50231;SDS011;36118;56.468;84.952;2022-07-23T13:29:42;3.28;;;2.00;;
50231;SDS011;36118;56.468;84.952;2022-07-23T13:34:46;3.08;;;1.60;;
50231;SDS011;36118;56.468;84.952;2022-07-23T13:39:51;2.50;;;1.85;;
50231;SDS011;36118;56.468;84.952;2022-07-23T13:44:54;3.58;;;1.90;;
50231;SDS011;36118;56.468;84.952;2022-07-23T13:49:57;3.33;;;1.80;;
50231;SDS011;36118;56.468;84.952;2022-07-23T13:55:02;3.50;;;1.90;;
50231;SDS011;36118;56.468;84.952;2022-07-23T14:00:07;4.95;;;2.15;;
50231;SDS011;36118;56.468;84.952;2022-07-23T14:10:35;3.55;;;1.88;;
50231;SDS011;36118;56.468;84.952;2022-07-23T14:15:39;7.97;;;2.28;;
50231;SDS011;36118;56.468;84.952;2022-07-23T14:20:44;5.30;;;2.10;;
50231;SDS011;36118;56.468;84.952;2022-07-23T14:25:46;5.05;;;1.95;;
50231;SDS011;36118;56.468;84.952;2022-07-23T14:30:49;3.90;;;1.67;;
50231;SDS011;36118;56.468;84.952;2022-07-23T14:35:52;4.75;;;2.10;;
50231;SDS011;36118;56.468;84.952;2022-07-23T14:40:56;6.88;;;2.20;;
50231;SDS011;36118;56.468;84.952;2022-07-23T14:46:01;7.75;;;2.53;;
50231;SDS011;36118;56.468;84.952;2022-07-23T14:51:03;3.63;;;2.20;;
50231;SDS011;36118;56.468;84.952;2022-07-23T14:56:07;3.85;;;2.20;;
50231;SDS011;36118;56.468;84.952;2022-07-23T15:01:10;5.90;;;2.85;;
50231;SDS011;36118;56.468;84.952;2022-07-23T15:06:13;5.22;;;2.55;;
50231;SDS011;36118;56.468;84.952;2022-07-23T15:11:16;4.88;;;2.35;;
50231;SDS011;36118;56.468;84.952;2022-07-23T15:16:18;6.15;;;2.60;;
50231;SDS011;36118;56.468;84.952;2022-07-23T15:21:25;6.15;;;2.63;;
50231;SDS011;36118;56.468;84.952;2022-07-23T15:26:31;7.45;;;2.97;;
50231;SDS011;36118;56.468;84.952;2022-07-23T15:31:34;6.68;;;3.00;;
50231;SDS011;36118;56.468;84.952;2022-07-23T15:36:37;18.55;;;4.40;;
50231;SDS011;36118;56.468;84.952;2022-07-23T15:41:40;10.20;;;4.43;;
50231;SDS011;36118;56.468;84.952;2022-07-23T15:46:44;12.50;;;5.32;;
50231;SDS011;36118;56.468;84.952;2022-07-23T15:51:47;6.93;;;4.75;;
50231;SDS011;36118;56.468;84.952;2022-07-23T15:56:50;7.70;;;5.20;;
50231;SDS011;36118;56.468;84.952;2022-07-23T16:01:53;7.20;;;4.32;;
50231;SDS011;36118;56.468;84.952;2022-07-23T16:06:56;7.28;;;4.40;;
50231;SDS011;36118;56.468;84.952;2022-07-23T16:11:59;7.68;;;5.55;;
50231;SDS011;36118;56.468;84.952;2022-07-23T16:17:01;7.68;;;5.07;;
50231;SDS011;36118;56.468;84.952;2022-07-23T16:22:05;6.50;;;4.00;;
50231;SDS011;36118;56.468;84.952;2022-07-23T16:27:08;8.52;;;3.50;;
50231;SDS011;36118;56.468;84.952;2022-07-23T16:32:10;9.30;;;3.53;;
50231;SDS011;36118;56.468;84.952;2022-07-23T16:37:13;6.80;;;2.88;;
50231;SDS011;36118;56.468;84.952;2022-07-23T16:42:16;6.43;;;2.97;;
50231;SDS011;36118;56.468;84.952;2022-07-23T16:47:19;4.85;;;2.78;;
50231;SDS011;36118;56.468;84.952;2022-07-23T16:52:22;4.53;;;2.88;;
50231;SDS011;36118;56.468;84.952;2022-07-23T16:57:25;5.57;;;3.03;;
50231;SDS011;36118;56.468;84.952;2022-07-23T17:02:28;6.38;;;3.10;;
50231;SDS011;36118;56.468;84.952;2022-07-23T17:07:30;5.07;;;2.88;;
50231;SDS011;36118;56.468;84.952;2022-07-23T17:12:34;5.35;;;2.90;;
50231;SDS011;36118;56.468;84.952;2022-07-23T17:17:36;6.82;;;3.22;;
50231;SDS011;36118;56.468;84.952;2022-07-23T17:22:39;4.85;;;2.92;;
50231;SDS011;36118;56.468;84.952;2022-07-23T17:27:45;4.07;;;2.50;;
50231;SDS011;36118;56.468;84.952;2022-07-23T17:32:48;14.45;;;3.05;;
50231;SDS011;36118;56.468;84.952;2022-07-23T17:37:50;4.97;;;2.78;;
50231;SDS011;36118;56.468;84.952;2022-07-23T17:42:53;7.43;;;2.10;;
50231;SDS011;36118;56.468;84.952;2022-07-23T17:47:56;4.00;;;1.95;;
50231;SDS011;36118;56.468;84.952;2022-07-23T17:52:59;4.50;;;2.50;;
50231;SDS011;36118;56.468;84.952;2022-07-23T17:58:02;4.55;;;3.03;;
50231;SDS011;36118;56.468;84.952;2022-07-23T18:03:05;7.35;;;3.58;;
50231;SDS011;36118;56.468;84.952;2022-07-23T18:08:08;7.82;;;3.65;;
50231;SDS011;36118;56.468;84.952;2022-07-23T18:13:11;7.47;;;3.75;;
50231;SDS011;36118;56.468;84.952;2022-07-23T18:18:14;9.65;;;4.40;;
50231;SDS011;36118;56.468;84.952;2022-07-23T18:23:17;9.15;;;4.13;;
50231;SDS011;36118;56.468;84.952;2022-07-23T18:28:20;7.72;;;4.20;;
50231;SDS011;36118;56.468;84.952;2022-07-23T18:33:23;7.85;;;4.35;;
50231;SDS011;36118;56.468;84.952;2022-07-23T18:38:26;7.68;;;4.65;;
50231;SDS011;36118;56.468;84.952;2022-07-23T18:43:29;8.60;;;4.95;;
50231;SDS011;36118;56.468;84.952;2022-07-23T18:48:34;10.63;;;5.60;;
50231;SDS011;36118;56.468;84.952;2022-07-23T18:53:42;7.38;;;4.95;;
50231;SDS011;36118;56.468;84.952;2022-07-23T18:58:45;7.57;;;4.82;;
50231;SDS011;36118;56.468;84.952;2022-07-23T19:03:48;8.30;;;5.15;;
50231;SDS011;36118;56.468;84.952;2022-07-23T19:08:51;7.60;;;5.10;;
50231;SDS011;36118;56.468;84.952;2022-07-23T19:13:54;8.93;;;5.20;;
50231;SDS011;36118;56.468;84.952;2022-07-23T19:18:57;6.93;;;4.97;;
50231;SDS011;36118;56.468;84.952;2022-07-23T19:24:00;11.23;;;5.00;;
50231;SDS011;36118;56.468;84.952;2022-07-23T19:29:03;8.57;;;5.22;;
50231;SDS011;36118;56.468;84.952;2022-07-23T19:34:06;7.82;;;4.50;;
50231;SDS011;36118;56.468;84.952;2022-07-23T19:39:09;9.15;;;4.55;;
50231;SDS011;36118;56.468;84.952;2022-07-23T19:44:12;6.97;;;3.88;;
50231;SDS011;36118;56.468;84.952;2022-07-23T19:49:15;7.07;;;3.30;;
50231;SDS011;36118;56.468;84.952;2022-07-23T19:54:18;7.85;;;3.60;;
50231;SDS011;36118;56.468;84.952;2022-07-23T19:59:21;7.28;;;4.00;;
50231;SDS011;36118;56.468;84.952;2022-07-23T20:04:24;5.53;;;3.33;;
50231;SDS011;36118;56.468;84.952;2022-07-23T20:09:27;7.38;;;3.30;;
50231;SDS011;36118;56.468;84.952;2022-07-23T20:14:30;6.85;;;3.25;;
50231;SDS011;36118;56.468;84.952;2022-07-23T20:19:33;6.93;;;3.47;;
50231;SDS011;36118;56.468;84.952;2022-07-23T20:24:36;7.68;;;3.50;;
50231;SDS011;36118;56.468;84.952;2022-07-23T20:29:39;5.85;;;3.20;;
50231;SDS011;36118;56.468;84.952;2022-07-23T20:34:42;4.32;;;2.50;;
50231;SDS011;36118;56.468;84.952;2022-07-23T20:39:45;5.03;;;2.60;;
50231;SDS011;36118;56.468;84.952;2022-07-23T20:44:48;4.93;;;2.30;;
50231;SDS011;36118;56.468;84.952;2022-07-23T20:49:52;8.07;;;2.70;;
50231;SDS011;36118;56.468;84.952;2022-07-23T20:54:57;3.88;;;2.38;;
50231;SDS011;36118;56.468;84.952;2022-07-23T21:00:00;6.03;;;2.65;;
50231;SDS011;36118;56.468;84.952;2022-07-23T21:05:05;4.28;;;2.30;;
50231;SDS011;36118;56.468;84.952;2022-07-23T21:10:09;7.03;;;2.60;;
50231;SDS011;36118;56.468;84.952;2022-07-23T21:15:12;6.80;;;2.70;;
50231;SDS011;36118;56.468;84.952;2022-07-23T21:20:15;10.40;;;3.00;;
50231;SDS011;36118;56.468;84.952;2022-07-23T21:25:18;6.18;;;2.70;;
50231;SDS011;36118;56.468;84.952;2022-07-23T21:30:21;6.82;;;3.03;;
50231;SDS011;36118;56.468;84.952;2022-07-23T21:35:29;6.38;;;3.30;;
50231;SDS011;36118;56.468;84.952;2022-07-23T21:40:32;6.40;;;3.10;;
50231;SDS011;36118;56.468;84.952;2022-07-23T21:45:35;8.63;;;3.17;;
50231;SDS011;36118;56.468;84.952;2022-07-23T21:50:38;6.47;;;2.97;;
50231;SDS011;36118;56.468;84.952;2022-07-23T21:55:41;7.15;;;3.00;;
50231;SDS011;36118;56.468;84.952;2022-07-23T22:00:44;6.43;;;3.08;;
50231;SDS011;36118;56.468;84.952;2022-07-23T22:05:47;12.73;;;3.55;;
50231;SDS011;36118;56.468;84.952;2022-07-23T22:10:50;9.82;;;3.45;;
50231;SDS011;36118;56.468;84.952;2022-07-23T22:15:53;9.02;;;3.47;;
50231;SDS011;36118;56.468;84.952;2022-07-23T22:20:56;8.90;;;3.50;;
50231;SDS011;36118;56.468;84.952;2022-07-23T22:25:59;7.38;;;3.35;;
50231;SDS011;36118;56.468;84.952;2022-07-23T22:31:02;6.97;;;3.65;;
50231;SDS011;36118;56.468;84.952;2022-07-23T22:36:08;7.70;;;3.53;;
50231;SDS011;36118;56.468;84.952;2022-07-23T22:41:11;10.23;;;3.80;;
50231;SDS011;36118;56.468;84.952;2022-07-23T22:46:14;6.78;;;3.85;;
50231;SDS011;36118;56.468;84.952;2022-07-23T22:51:16;7.55;;;4.50;;
50231;SDS011;36118;56.468;84.952;2022-07-23T22:56:22;10.23;;;4.25;;
50231;SDS011;36118;56.468;84.952;2022-07-23T23:01:25;9.18;;;4.80;;
50231;SDS011;36118;56.468;84.952;2022-07-23T23:06:28;10.70;;;4.90;;
50231;SDS011;36118;56.468;84.952;2022-07-23T23:11:31;7.05;;;4.60;;
50231;SDS011;36118;56.468;84.952;2022-07-23T23:16:33;9.50;;;4.53;;
50231;SDS011;36118;56.468;84.952;2022-07-23T23:21:41;8.13;;;4.63;;
50231;SDS011;36118;56.468;84.952;2022-07-23T23:26:44;7.03;;;4.43;;
50231;SDS011;36118;56.468;84.952;2022-07-23T23:31:47;8.88;;;5.15;;
50231;SDS011;36118;56.468;84.952;2022-07-23T23:36:49;9.40;;;5.15;;
50231;SDS011;36118;56.468;84.952;2022-07-23T23:41:53;8.65;;;4.80;;
50231;SDS011;36118;56.468;84.952;2022-07-23T23:46:56;9.27;;;5.20;;
50231;SDS011;36118;56.468;84.952;2022-07-23T23:51:58;10.15;;;5.78;;
50231;SDS011;36118;56.468;84.952;2022-07-23T23:57:01;6.70;;;5.05;;
